Time;durP1;ratioP1;P1;durP2;ratioP2;P2;SDS_P1;SDS_P2;PMS_P1;PMS_P2;Temp;Humidity;BMP_temperature;BMP_pressure;BME280_temperature;BME280_humidity;BME280_pressure;Samples;Min_cycle;Max_cycle;Signal;HPM_P1;HPM_P2
2023/12/29 00:01:51;;;;;;;19.30;12.40;;;23.80;52.90;;;;;;218975;1279;22592;-58
2023/12/29 00:06:56;;;;;;;18.70;12.20;;;23.80;53.10;;;;;;218895;1287;24221;-60
2023/12/29 00:12:07;;;;;;;13.80;11.50;;;23.80;52.60;;;;;;219218;1280;22545;-58
2023/12/29 00:17:11;;;;;;;16.30;10.90;;;23.70;52.70;;;;;;219306;1283;22559;-59
2023/12/29 00:22:16;;;;;;;12.60;11.30;;;23.60;53.40;;;;;;219362;1285;22547;-58
2023/12/29 00:27:21;;;;;;;15.40;10.70;;;23.60;53.30;;;;;;219116;1286;22580;-59
2023/12/29 00:32:25;;;;;;;12.70;10.70;;;23.70;53.20;;;;;;219089;1285;22537;-60
2023/12/29 00:37:30;;;;;;;13.50;10.40;;;24.00;53.30;;;;;;219172;1273;24231;-57
2023/12/29 00:42:35;;;;;;;16.60;10.80;;;24.10;52.50;;;;;;219150;1274;25564;-59
2023/12/29 00:47:41;;;;;;;14.20;10.80;;;24.10;52.60;;;;;;219208;1286;24281;-59
2023/12/29 00:52:46;;;;;;;13.70;10.60;;;24.00;53.00;;;;;;219077;1283;22621;-60
2023/12/29 00:57:52;;;;;;;14.10;10.60;;;23.90;54.00;;;;;;219080;1285;24395;-59
2023/12/29 01:02:57;;;;;;;12.30;9.70;;;23.70;54.20;;;;;;219025;1283;25360;-59
2023/12/29 01:08:03;;;;;;;13.90;10.10;;;23.70;54.50;;;;;;219170;1286;22770;-60
2023/12/29 01:13:07;;;;;;;10.50;9.00;;;23.90;54.00;;;;;;218913;1288;22585;-59
2023/12/29 01:18:12;;;;;;;11.60;9.60;;;23.90;54.00;;;;;;219004;1279;23832;-58
2023/12/29 01:23:17;;;;;;;11.70;9.30;;;23.90;53.80;;;;;;219040;1279;22688;-60
2023/12/29 01:28:22;;;;;;;11.00;9.40;;;23.80;54.00;;;;;;219187;1288;22545;-59
2023/12/29 01:33:27;;;;;;;11.50;9.90;;;23.70;54.80;;;;;;219017;1286;24227;-59
2023/12/29 01:38:32;;;;;;;11.50;9.70;;;23.70;54.50;;;;;;218744;1288;24045;-59
2023/12/29 01:44:00;;;;;;;10.50;9.40;;;23.60;54.80;;;;;;223949;1285;25258;-57
2023/12/29 01:49:05;;;;;;;12.50;9.00;;;23.70;54.50;;;;;;221878;1285;23780;-58
2023/12/29 01:54:11;;;;;;;9.80;8.50;;;23.70;54.10;;;;;;220965;1279;22554;-58
2023/12/29 01:59:19;;;;;;;12.40;9.60;;;23.90;54.30;;;;;;220551;1288;25434;-59
2023/12/29 02:04:30;;;;;;;10.00;8.20;;;24.10;53.60;;;;;;219005;1283;24237;-59
2023/12/29 02:09:36;;;;;;;9.50;8.10;;;24.30;53.10;;;;;;219110;1279;24284;-60
2023/12/29 02:14:41;;;;;;;9.40;8.20;;;24.40;52.90;;;;;;219141;1288;22590;-59
2023/12/29 02:19:49;;;;;;;10.60;8.30;;;24.30;53.50;;;;;;219009;1287;23275;-60
2023/12/29 02:24:54;;;;;;;9.50;7.80;;;24.10;53.60;;;;;;219263;1288;24239;-58
2023/12/29 02:30:19;;;;;;;7.50;6.80;;;23.90;53.80;;;;;;219029;1287;24410;-60
2023/12/29 02:35:26;;;;;;;9.50;8.50;;;23.80;54.00;;;;;;219298;1286;22599;-58
2023/12/29 02:40:31;;;;;;;8.10;7.30;;;24.00;53.90;;;;;;219186;1287;22563;-58
2023/12/29 02:45:35;;;;;;;8.80;7.80;;;24.00;54.20;;;;;;219177;1288;24202;-58
2023/12/29 02:50:40;;;;;;;9.70;7.40;;;23.90;54.00;;;;;;219183;1273;25429;-58
2023/12/29 02:55:44;;;;;;;9.30;7.20;;;23.90;54.20;;;;;;218837;1280;22549;-60
2023/12/29 03:00:49;;;;;;;9.10;7.70;;;23.80;54.00;;;;;;219009;1281;22917;-58
2023/12/29 03:05:53;;;;;;;9.30;6.70;;;23.70;54.00;;;;;;219152;1279;26905;-60
2023/12/29 03:10:59;;;;;;;7.80;6.80;;;23.60;54.00;;;;;;219084;1287;22679;-59
2023/12/29 03:16:03;;;;;;;8.50;7.00;;;23.50;53.90;;;;;;219275;1288;25363;-59
2023/12/29 03:21:08;;;;;;;7.50;6.70;;;23.40;54.10;;;;;;219022;1280;23915;-60
2023/12/29 03:26:13;;;;;;;7.70;6.90;;;23.50;54.40;;;;;;218935;1287;23851;-58
2023/12/29 03:31:44;;;;;;;7.50;6.50;;;23.60;53.90;;;;;;219306;1288;22541;-59
2023/12/29 03:36:49;;;;;;;7.10;5.60;;;23.90;53.20;;;;;;219345;1273;24221;-58
2023/12/29 03:41:54;;;;;;;6.60;5.70;;;24.00;52.90;;;;;;218825;1286;24292;-59
2023/12/29 03:46:59;;;;;;;7.20;5.70;;;24.10;52.80;;;;;;218541;1283;24311;-58
2023/12/29 03:52:04;;;;;;;6.70;5.80;;;23.90;53.10;;;;;;219108;1280;25338;-59
2023/12/29 03:57:09;;;;;;;6.70;5.70;;;23.80;53.40;;;;;;218972;1288;22556;-59
2023/12/29 04:02:17;;;;;;;6.60;5.70;;;23.70;53.50;;;;;;219371;1280;25315;-60
2023/12/29 04:07:21;;;;;;;5.40;4.90;;;23.80;53.50;;;;;;219504;1273;25494;-59
2023/12/29 04:12:27;;;;;;;6.00;5.40;;;24.10;53.00;;;;;;219933;1276;24228;-59
2023/12/29 04:17:31;;;;;;;7.90;5.40;;;24.00;52.50;;;;;;218833;1286;24244;-60
2023/12/29 04:22:36;;;;;;;5.90;5.30;;;23.90;52.60;;;;;;218727;1277;24208;-59
2023/12/29 04:27:41;;;;;;;5.90;5.30;;;23.70;53.00;;;;;;219371;1267;23627;-60
2023/12/29 04:32:47;;;;;;;6.00;5.30;;;23.60;53.10;;;;;;219025;1283;25432;-60
2023/12/29 04:37:53;;;;;;;5.90;5.20;;;23.40;53.30;;;;;;218968;1289;22687;-60
2023/12/29 04:42:58;;;;;;;6.60;5.20;;;23.30;53.40;;;;;;218582;1288;23927;-60
2023/12/29 04:48:03;;;;;;;5.50;5.00;;;23.40;53.30;;;;;;218672;1286;25303;-59
2023/12/29 04:53:08;;;;;;;5.30;4.80;;;23.60;53.10;;;;;;218765;1279;25431;-58
2023/12/29 04:58:13;;;;;;;5.50;5.00;;;23.90;52.60;;;;;;219083;1283;24280;-59
2023/12/29 05:03:17;;;;;;;5.50;4.90;;;24.10;52.00;;;;;;218726;1283;24228;-58
2023/12/29 05:08:22;;;;;;;5.80;4.80;;;24.20;52.10;;;;;;218958;1288;25522;-59
2023/12/29 05:13:27;;;;;;;5.20;4.40;;;24.00;52.30;;;;;;219133;1277;24088;-59
2023/12/29 05:18:32;;;;;;;4.60;4.20;;;23.90;52.50;;;;;;219154;1283;22552;-59
2023/12/29 05:23:37;;;;;;;5.50;5.00;;;24.00;52.60;;;;;;219237;1283;22597;-59
2023/12/29 05:28:41;;;;;;;5.40;4.70;;;24.00;52.10;;;;;;219142;1283;24231;-59
2023/12/29 05:33:46;;;;;;;4.30;3.90;;;24.00;52.80;;;;;;219004;1283;22558;-60
2023/12/29 05:38:51;;;;;;;4.00;3.50;;;24.00;53.70;;;;;;219139;1288;24388;-59
2023/12/29 05:43:57;;;;;;;4.70;4.30;;;23.90;52.80;;;;;;219315;1286;24231;-59
2023/12/29 05:49:01;;;;;;;5.60;4.10;;;23.80;52.60;;;;;;219142;1288;23908;-58
2023/12/29 05:54:09;;;;;;;4.70;4.20;;;23.60;53.10;;;;;;218886;1283;24285;-59
2023/12/29 05:59:14;;;;;;;4.80;4.10;;;23.50;53.00;;;;;;219291;1283;24227;-59
2023/12/29 06:04:19;;;;;;;4.10;3.70;;;23.40;53.20;;;;;;219215;1283;25309;-60
2023/12/29 06:09:23;;;;;;;4.30;3.80;;;23.30;53.30;;;;;;219118;1283;22546;-57
2023/12/29 06:14:28;;;;;;;4.40;4.00;;;23.20;53.60;;;;;;219423;1280;24222;-58
2023/12/29 06:19:33;;;;;;;4.10;3.40;;;23.20;53.60;;;;;;218855;1280;23852;-59
2023/12/29 06:24:38;;;;;;;3.90;3.60;;;23.10;53.70;;;;;;218649;1286;361223;-60
2023/12/29 06:29:42;;;;;;;4.60;4.00;;;23.10;53.70;;;;;;219030;1281;22623;-59
2023/12/29 06:34:47;;;;;;;4.70;4.30;;;23.00;53.90;;;;;;219324;1273;25398;-59
2023/12/29 06:39:51;;;;;;;5.20;3.60;;;22.90;54.00;;;;;;219168;1280;24222;-58
2023/12/29 06:44:56;;;;;;;5.80;4.60;;;23.00;54.10;;;;;;219222;1273;24293;-57
2023/12/29 06:50:02;;;;;;;9.70;3.70;;;22.90;54.20;;;;;;219343;1287;25615;-57
2023/12/29 06:55:07;;;;;;;4.80;3.70;;;22.80;54.60;;;;;;219201;1281;25270;-56
2023/12/29 07:00:12;;;;;;;4.50;3.70;;;22.80;54.60;;;;;;219346;1280;22559;-58
2023/12/29 07:05:16;;;;;;;3.90;3.50;;;22.90;55.50;;;;;;218962;1273;25307;-58
2023/12/29 07:10:20;;;;;;;5.60;3.60;;;23.10;54.70;;;;;;219113;1286;22544;-58
2023/12/29 07:15:25;;;;;;;3.50;3.20;;;23.60;54.20;;;;;;218957;1280;22537;-54
2023/12/29 07:20:29;;;;;;;5.00;3.10;;;23.90;53.30;;;;;;219444;1287;22677;-67
2023/12/29 07:25:34;;;;;;;4.00;3.60;;;24.00;53.10;;;;;;219075;1287;24247;-67
2023/12/29 07:30:38;;;;;;;4.40;3.70;;;23.90;53.20;;;;;;218927;1284;23045;-66
2023/12/29 07:35:42;;;;;;;5.10;3.80;;;23.80;53.60;;;;;;219045;1278;22553;-67
2023/12/29 07:40:47;;;;;;;5.90;3.20;;;23.70;54.20;;;;;;219001;1283;22649;-66
2023/12/29 07:45:52;;;;;;;3.70;3.30;;;23.60;54.30;;;;;;218912;1287;22527;-68
2023/12/29 07:51:04;;;;;;;4.30;3.20;;;23.40;54.60;;;;;;219103;1276;23578;-67
2023/12/29 07:56:10;;;;;;;7.30;2.80;;;23.40;54.40;;;;;;218955;1284;22736;-68
2023/12/29 08:01:15;;;;;;;5.40;3.30;;;23.40;54.30;;;;;;219085;1276;22539;-67
2023/12/29 08:06:19;;;;;;;4.30;2.90;;;23.40;54.60;;;;;;218997;1280;24339;-68
2023/12/29 08:11:24;;;;;;;7.90;3.70;;;23.30;54.50;;;;;;218718;1280;26089;-69
2023/12/29 08:16:28;;;;;;;3.90;2.90;;;23.20;54.40;;;;;;218684;1280;24321;-67
2023/12/29 08:21:33;;;;;;;6.60;3.00;;;23.20;53.80;;;;;;218877;1280;24256;-67
2023/12/29 08:26:48;;;;;;;5.30;2.80;;;23.20;53.40;;;;;;219213;1285;22543;-68
2023/12/29 08:31:56;;;;;;;4.30;3.00;;;23.10;53.60;;;;;;219262;1280;25433;-69
2023/12/29 08:37:00;;;;;;;3.10;2.80;;;23.00;53.50;;;;;;218823;1288;22743;-69
2023/12/29 08:42:06;;;;;;;3.40;2.90;;;23.00;53.40;;;;;;219335;1283;22600;-69
2023/12/29 08:47:14;;;;;;;3.60;3.20;;;23.00;53.50;;;;;;219776;1283;24201;-69
2023/12/29 08:52:19;;;;;;;3.50;2.90;;;22.90;53.40;;;;;;219164;1280;24227;-69
2023/12/29 08:57:23;;;;;;;3.10;2.90;;;22.90;53.30;;;;;;219904;1280;24342;-69
2023/12/29 09:02:28;;;;;;;3.50;3.20;;;23.00;53.30;;;;;;219275;1287;24228;-68
2023/12/29 09:07:32;;;;;;;3.60;3.30;;;23.00;53.00;;;;;;221175;1280;22548;-69
2023/12/29 09:12:39;;;;;;;5.50;4.90;;;23.20;52.70;;;;;;218903;1288;24276;-68
2023/12/29 09:17:43;;;;;;;8.20;5.70;;;23.10;52.70;;;;;;219023;1278;22563;-68
2023/12/29 09:22:48;;;;;;;6.90;6.20;;;23.40;52.10;;;;;;218744;1282;25414;-68
2023/12/29 09:27:53;;;;;;;7.40;6.70;;;23.70;51.30;;;;;;219587;1284;24239;-68
2023/12/29 09:32:57;;;;;;;6.90;6.30;;;23.90;51.00;;;;;;219030;1283;22554;-68
2023/12/29 09:38:03;;;;;;;6.80;6.30;;;23.90;51.10;;;;;;219321;1280;24292;-69
2023/12/29 09:43:09;;;;;;;6.40;5.60;;;23.80;51.30;;;;;;219078;1283;25622;-68
2023/12/29 09:48:19;;;;;;;7.00;6.40;;;23.60;51.80;;;;;;219641;1286;24347;-68
2023/12/29 09:53:25;;;;;;;7.20;6.10;;;23.50;52.00;;;;;;218962;1286;25319;-68
2023/12/29 09:58:30;;;;;;;6.30;5.70;;;23.40;52.40;;;;;;219392;1283;22539;-68
2023/12/29 10:03:35;;;;;;;6.50;5.90;;;23.30;52.70;;;;;;219019;1282;24233;-68
2023/12/29 10:08:45;;;;;;;6.20;5.70;;;23.30;52.30;;;;;;218925;1278;22722;-68
2023/12/29 10:13:55;;;;;;;6.60;5.90;;;23.30;52.50;;;;;;219737;1280;24371;-68
2023/12/29 10:19:37;;;;;;;8.80;5.50;;;23.30;52.40;;;;;;219964;1280;24312;-69
2023/12/29 10:24:45;;;;;;;5.50;5.10;;;23.30;52.40;;;;;;218969;1282;22539;-69
2023/12/29 10:29:50;;;;;;;5.70;5.10;;;23.30;52.80;;;;;;219557;1280;22546;-69
2023/12/29 10:35:11;;;;;;;5.00;4.60;;;23.20;52.80;;;;;;219014;1274;22547;-69
2023/12/29 10:40:19;;;;;;;5.40;4.90;;;23.20;52.60;;;;;;219060;1286;23032;-68
2023/12/29 10:45:24;;;;;;;5.50;5.00;;;23.10;52.60;;;;;;219068;1274;24230;-68
2023/12/29 10:50:29;;;;;;;5.50;5.00;;;23.10;52.60;;;;;;218667;1270;22575;-68
2023/12/29 10:55:33;;;;;;;5.20;4.70;;;23.10;52.70;;;;;;219105;1287;22546;-68
2023/12/29 11:00:38;;;;;;;5.40;4.80;;;23.10;53.40;;;;;;219716;1287;22553;-70
2023/12/29 11:05:42;;;;;;;5.30;4.80;;;23.00;53.20;;;;;;218852;1276;24686;-68
2023/12/29 11:10:51;;;;;;;5.80;5.30;;;23.00;53.40;;;;;;219417;1281;24354;-68
2023/12/29 11:15:57;;;;;;;4.40;4.00;;;22.90;53.50;;;;;;218983;1279;25259;-67
2023/12/29 11:21:02;;;;;;;4.70;4.20;;;22.90;53.40;;;;;;219025;1280;25307;-68
2023/12/29 11:26:07;;;;;;;4.60;4.20;;;22.90;53.30;;;;;;219147;1280;25083;-68
2023/12/29 11:31:12;;;;;;;4.50;4.10;;;22.80;53.50;;;;;;218905;1286;24025;-68
2023/12/29 11:36:22;;;;;;;4.70;4.30;;;22.90;53.50;;;;;;219892;1283;22546;-66
2023/12/29 11:42:17;;;;;;;4.90;3.90;;;23.00;52.80;;;;;;219345;1287;22686;-67
2023/12/29 11:47:35;;;;;;;4.10;3.80;;;23.30;52.30;;;;;;219169;1280;24517;-67
2023/12/29 11:52:40;;;;;;;4.40;4.00;;;23.80;51.00;;;;;;218949;1283;22548;-70
2023/12/29 11:57:44;;;;;;;3.60;3.30;;;23.90;50.80;;;;;;220682;1285;25312;-67
2023/12/29 12:02:51;;;;;;;3.70;3.40;;;23.90;51.00;;;;;;219867;1288;22676;-67
2023/12/29 12:07:55;;;;;;;4.50;3.60;;;23.80;51.60;;;;;;218717;1282;26545;-68
2023/12/29 12:13:00;;;;;;;4.30;3.90;;;23.70;51.40;;;;;;218657;1281;25268;-67
2023/12/29 12:18:09;;;;;;;3.80;3.50;;;23.60;51.50;;;;;;218114;1289;23249;-66
2023/12/29 12:23:18;;;;;;;3.90;3.50;;;23.40;52.40;;;;;;218616;1276;22543;-68
2023/12/29 12:28:23;;;;;;;3.80;3.40;;;23.40;52.20;;;;;;218770;1282;22572;-67
2023/12/29 12:33:28;;;;;;;4.20;3.90;;;23.30;51.80;;;;;;219206;1282;22572;-68
2023/12/29 12:38:33;;;;;;;4.20;3.80;;;23.30;52.30;;;;;;218699;1269;22578;-67
2023/12/29 12:43:45;;;;;;;4.40;4.00;;;23.30;52.30;;;;;;218804;1283;22552;-67
2023/12/29 12:48:50;;;;;;;4.40;4.10;;;23.20;52.50;;;;;;218668;1282;23934;-68
2023/12/29 12:53:55;;;;;;;6.10;4.50;;;23.10;52.20;;;;;;218623;1276;25521;-68
2023/12/29 12:59:02;;;;;;;4.40;3.40;;;23.20;52.10;;;;;;218890;1286;22543;-67
2023/12/29 13:04:08;;;;;;;4.20;3.90;;;23.10;52.50;;;;;;218631;1288;24278;-66
2023/12/29 13:09:19;;;;;;;4.70;3.80;;;23.10;52.30;;;;;;218673;1273;22556;-67
2023/12/29 13:14:25;;;;;;;5.00;3.60;;;23.10;52.80;;;;;;219030;1283;25429;-67
2023/12/29 13:19:30;;;;;;;7.00;4.20;;;23.00;52.30;;;;;;219210;1276;23760;-67
2023/12/29 13:24:42;;;;;;;4.50;3.90;;;23.00;53.60;;;;;;219321;1287;22657;-67
2023/12/29 13:29:48;;;;;;;5.70;4.60;;;23.20;52.50;;;;;;219221;1274;24269;-67
2023/12/29 13:35:05;;;;;;;5.90;4.10;;;23.10;52.40;;;;;;219306;1288;25361;-67
2023/12/29 13:41:01;;;;;;;4.90;4.40;;;23.20;52.50;;;;;;220141;1282;22665;-66
2023/12/29 13:46:06;;;;;;;8.00;3.80;;;23.10;52.60;;;;;;222483;1286;22576;-67
2023/12/29 13:51:11;;;;;;;5.70;4.30;;;23.20;52.20;;;;;;219047;1281;22612;-66
2023/12/29 13:56:16;;;;;;;6.00;4.80;;;23.10;53.40;;;;;;219338;1283;24291;-64
2023/12/29 14:01:23;;;;;;;4.60;4.10;;;23.00;53.50;;;;;;218874;1283;22622;-68
2023/12/29 14:06:59;;;;;;;4.90;4.40;;;22.90;53.90;;;;;;219281;1280;22631;-68
2023/12/29 14:12:05;;;;;;;7.30;4.20;;;22.90;53.30;;;;;;219158;1286;22678;-68
2023/12/29 14:17:10;;;;;;;5.00;4.40;;;23.40;51.80;;;;;;219115;1286;24254;-68
2023/12/29 14:22:22;;;;;;;4.90;4.40;;;23.60;51.50;;;;;;219211;1278;22990;-68
2023/12/29 14:27:27;;;;;;;5.10;4.60;;;23.80;51.30;;;;;;219012;1279;23208;-68
2023/12/29 14:32:31;;;;;;;6.60;3.90;;;23.80;51.10;;;;;;219080;1286;25380;-70
2023/12/29 14:37:37;;;;;;;9.10;4.60;;;23.70;51.40;;;;;;219496;1288;25199;-68
2023/12/29 14:42:42;;;;;;;5.80;4.70;;;23.60;51.40;;;;;;222286;1279;23114;-68
2023/12/29 14:47:49;;;;;;;9.00;5.10;;;23.60;51.50;;;;;;219753;1270;24228;-68
2023/12/29 14:52:53;;;;;;;7.60;4.80;;;23.40;51.80;;;;;;219413;1287;23041;-69
2023/12/29 14:57:57;;;;;;;10.00;5.30;;;23.30;52.10;;;;;;219396;1273;22549;-66
2023/12/29 15:03:02;;;;;;;12.70;6.20;;;23.20;52.60;;;;;;219240;1281;22623;-62
2023/12/29 15:08:09;;;;;;;9.00;5.20;;;23.30;52.10;;;;;;219018;1276;25375;-65
2023/12/29 15:13:13;;;;;;;37.20;10.20;;;23.30;51.80;;;;;;219274;1288;22620;-65
2023/12/29 15:18:18;;;;;;;25.90;8.70;;;23.20;52.00;;;;;;220468;1275;25517;-66
2023/12/29 15:23:27;;;;;;;26.00;8.70;;;23.00;52.90;;;;;;219710;1285;24249;-67
2023/12/29 15:28:32;;;;;;;23.10;8.10;;;23.10;53.10;;;;;;218951;1267;23219;-66
2023/12/29 15:33:36;;;;;;;23.90;8.80;;;23.00;53.50;;;;;;219299;1286;24211;-68
2023/12/29 15:38:41;;;;;;;21.10;7.30;;;23.00;53.90;;;;;;219240;1287;25525;-68
2023/12/29 15:43:46;;;;;;;33.10;8.20;;;23.00;54.20;;;;;;219062;1287;24256;-63
2023/12/29 15:48:50;;;;;;;14.00;7.40;;;23.00;54.80;;;;;;218949;1280;24297;-64
2023/12/29 15:53:56;;;;;;;24.80;8.70;;;23.00;53.70;;;;;;218908;1280;22689;-60
2023/12/29 15:59:00;;;;;;;18.20;7.50;;;23.10;54.40;;;;;;219178;1283;24229;-66
2023/12/29 16:04:06;;;;;;;17.50;7.00;;;23.00;56.70;;;;;;218975;1282;25526;-66
2023/12/29 16:09:11;;;;;;;17.10;8.10;;;22.90;57.10;;;;;;219209;1280;24511;-66
2023/12/29 16:14:18;;;;;;;33.70;8.40;;;22.90;56.80;;;;;;218822;1270;22536;-62
2023/12/29 16:19:24;;;;;;;22.50;7.90;;;23.00;57.70;;;;;;219189;1287;24221;-63
2023/12/29 16:24:29;;;;;;;17.60;6.70;;;23.00;57.30;;;;;;219398;1280;25281;-63
2023/12/29 16:29:34;;;;;;;20.10;7.90;;;22.90;57.80;;;;;;219139;1283;22591;-62
2023/12/29 16:34:39;;;;;;;18.40;6.80;;;22.90;58.40;;;;;;218854;1280;25703;-63
2023/12/29 16:39:44;;;;;;;19.00;6.60;;;22.90;58.10;;;;;;218364;1268;22708;-63
2023/12/29 16:44:48;;;;;;;16.50;6.50;;;22.80;58.20;;;;;;218350;1275;24352;-60
2023/12/29 16:49:54;;;;;;;16.00;6.40;;;22.90;56.70;;;;;;218433;1286;25520;-61
2023/12/29 16:54:59;;;;;;;17.70;6.40;;;22.90;56.40;;;;;;218428;1273;22540;-61
2023/12/29 17:00:05;;;;;;;14.90;5.70;;;22.80;57.10;;;;;;219131;1286;22542;-60
2023/12/29 17:05:09;;;;;;;11.60;5.60;;;22.70;57.00;;;;;;219866;1283;24007;-62
2023/12/29 17:10:14;;;;;;;9.60;5.20;;;22.60;57.40;;;;;;220164;1280;23505;-62
2023/12/29 17:15:22;;;;;;;13.20;5.00;;;22.60;57.20;;;;;;222380;1286;25099;-62
2023/12/29 17:20:30;;;;;;;11.40;5.50;;;22.70;57.10;;;;;;220230;1273;22554;-60
2023/12/29 17:25:36;;;;;;;10.20;5.40;;;23.00;56.50;;;;;;219285;1283;24224;-60
2023/12/29 17:30:53;;;;;;;10.40;4.60;;;23.40;54.80;;;;;;220998;1282;22540;-61
2023/12/29 17:35:58;;;;;;;11.70;4.90;;;23.60;54.00;;;;;;220536;1287;24269;-59
2023/12/29 17:41:04;;;;;;;8.60;4.20;;;23.70;53.70;;;;;;220403;1283;24516;-60
2023/12/29 17:46:12;;;;;;;8.40;4.30;;;23.90;53.40;;;;;;220356;1280;22716;-61
2023/12/29 17:51:28;;;;;;;9.90;4.50;;;23.80;53.40;;;;;;219477;1283;22554;-61
2023/12/29 17:56:33;;;;;;;9.30;4.10;;;23.70;53.50;;;;;;218872;1281;23732;-61
2023/12/29 18:01:38;;;;;;;8.20;4.60;;;23.60;53.70;;;;;;218855;1283;22553;-50
2023/12/29 18:06:43;;;;;;;6.90;4.20;;;23.60;53.70;;;;;;218856;1281;24118;-47
2023/12/29 18:11:59;;;;;;;6.60;4.10;;;23.40;54.10;;;;;;219382;1287;22668;-50
2023/12/29 18:17:09;;;;;;;8.10;4.70;;;23.30;54.10;;;;;;219110;1272;26163;-51
2023/12/29 18:22:16;;;;;;;8.30;4.40;;;23.20;54.20;;;;;;218981;1286;252725;-51
2023/12/29 18:27:22;;;;;;;6.00;3.60;;;23.20;54.40;;;;;;219150;1285;24771;-51
2023/12/29 18:32:26;;;;;;;8.20;4.10;;;23.10;54.50;;;;;;218942;1287;23650;-51
2023/12/29 18:37:32;;;;;;;6.50;3.70;;;23.00;54.10;;;;;;219066;1288;22617;-50
2023/12/29 18:42:37;;;;;;;8.40;4.00;;;23.00;54.50;;;;;;219417;1287;22542;-51
2023/12/29 18:47:41;;;;;;;5.60;3.60;;;22.80;54.60;;;;;;218947;1283;25299;-49
2023/12/29 18:52:46;;;;;;;7.80;3.50;;;22.90;54.20;;;;;;219088;1280;24320;-52
2023/12/29 18:57:51;;;;;;;5.10;3.20;;;22.90;54.30;;;;;;219737;1286;24231;-48
2023/12/29 19:02:55;;;;;;;10.60;4.00;;;22.80;54.20;;;;;;219238;1282;25431;-51
2023/12/29 19:08:00;;;;;;;23.80;12.30;;;22.80;54.60;;;;;;219340;1283;22539;-50
2023/12/29 19:13:05;;;;;;;36.00;17.90;;;22.80;54.10;;;;;;219036;1286;22559;-50
2023/12/29 19:18:10;;;;;;;29.20;21.40;;;22.70;54.10;;;;;;220095;1282;24149;-51
2023/12/29 19:23:16;;;;;;;36.30;25.30;;;22.70;54.10;;;;;;218930;1283;22615;-49
2023/12/29 19:28:20;;;;;;;31.50;22.50;;;22.70;53.80;;;;;;219025;1266;22544;-51
2023/12/29 19:33:24;;;;;;;29.90;22.00;;;22.60;54.50;;;;;;219200;1286;22560;-48
2023/12/29 19:38:29;;;;;;;35.80;19.90;;;22.60;55.30;;;;;;218803;1284;22716;-53
2023/12/29 19:43:33;;;;;;;26.60;19.40;;;22.60;55.60;;;;;;218688;1275;24291;-51
2023/12/29 19:48:39;;;;;;;26.50;19.10;;;22.60;55.30;;;;;;218917;1281;22566;-51
2023/12/29 19:53:44;;;;;;;23.30;17.60;;;22.70;55.20;;;;;;218851;1286;22590;-51
2023/12/29 19:58:49;;;;;;;22.80;16.60;;;23.00;54.70;;;;;;218615;1286;24253;-50
2023/12/29 20:03:53;;;;;;;23.70;15.70;;;23.40;53.90;;;;;;218617;1288;22549;-51
2023/12/29 20:08:58;;;;;;;19.20;13.50;;;23.60;52.90;;;;;;218984;1286;25492;-53
2023/12/29 20:14:06;;;;;;;14.90;12.80;;;23.60;52.20;;;;;;219056;1288;24228;-50
2023/12/29 20:19:10;;;;;;;16.70;13.30;;;23.60;52.00;;;;;;219016;1282;22535;-50
2023/12/29 20:24:15;;;;;;;20.40;12.80;;;23.60;52.40;;;;;;219127;1280;25526;-53
2023/12/29 20:29:22;;;;;;;16.50;12.40;;;23.50;52.20;;;;;;222331;1279;25591;-50
2023/12/29 20:34:26;;;;;;;22.40;11.70;;;23.50;52.60;;;;;;221345;1283;22572;-53
2023/12/29 20:39:42;;;;;;;18.00;11.30;;;23.40;53.20;;;;;;220435;1286;22543;-52
2023/12/29 20:44:48;;;;;;;13.60;11.30;;;23.20;53.90;;;;;;219241;1285;23978;-51
2023/12/29 20:49:53;;;;;;;16.00;11.10;;;23.10;53.90;;;;;;219245;1286;22668;-49
2023/12/29 20:54:57;;;;;;;15.60;10.30;;;23.00;54.10;;;;;;219077;1284;22543;-53
2023/12/29 21:00:02;;;;;;;12.90;10.50;;;22.90;54.50;;;;;;218819;1281;24228;-51
2023/12/29 21:05:09;;;;;;;18.90;9.90;;;23.00;54.10;;;;;;219234;1277;25403;-48
2023/12/29 21:10:14;;;;;;;17.40;9.90;;;22.90;54.30;;;;;;219336;1283;24251;-49
2023/12/29 21:15:18;;;;;;;14.10;10.40;;;22.80;54.30;;;;;;219127;1286;25195;-51
2023/12/29 21:20:22;;;;;;;28.80;9.00;;;22.80;54.40;;;;;;219235;1284;22575;-51
2023/12/29 21:25:32;;;;;;;28.40;10.20;;;23.00;53.90;;;;;;218999;1283;22558;-50
2023/12/29 21:30:37;;;;;;;16.00;9.40;;;23.00;57.30;;;;;;218825;1281;24196;-50
2023/12/29 21:35:42;;;;;;;15.30;9.20;;;23.50;56.00;;;;;;219053;1273;25599;-52
2023/12/29 21:40:47;;;;;;;14.40;9.40;;;23.90;55.30;;;;;;218980;1285;22572;-52
2023/12/29 21:45:52;;;;;;;13.10;8.80;;;23.90;54.90;;;;;;219128;1283;22650;-48
2023/12/29 21:50:56;;;;;;;14.60;9.30;;;23.90;54.90;;;;;;219204;1270;24221;-48
2023/12/29 21:56:02;;;;;;;12.70;7.80;;;23.70;55.50;;;;;;219221;1284;23918;-51
2023/12/29 22:01:28;;;;;;;10.20;8.10;;;23.60;55.70;;;;;;219157;1282;24228;-48
2023/12/29 22:06:32;;;;;;;10.50;8.60;;;23.50;56.00;;;;;;219458;1287;25372;-47
2023/12/29 22:11:38;;;;;;;9.50;7.60;;;23.40;56.00;;;;;;219054;1285;22593;-51
2023/12/29 22:16:42;;;;;;;10.10;7.30;;;23.30;56.10;;;;;;222457;1285;23944;-49
2023/12/29 22:21:49;;;;;;;8.90;7.00;;;23.30;56.10;;;;;;219284;1285;22543;-48
2023/12/29 22:26:53;;;;;;;10.00;7.20;;;23.20;56.40;;;;;;218885;1288;25389;-48
2023/12/29 22:31:58;;;;;;;10.40;8.00;;;23.00;56.40;;;;;;219038;1283;22539;-49
2023/12/29 22:37:03;;;;;;;15.60;8.80;;;23.10;56.50;;;;;;218891;1289;25546;-48
2023/12/29 22:42:08;;;;;;;9.50;7.30;;;23.00;57.20;;;;;;219062;1282;22560;-48
2023/12/29 22:47:12;;;;;;;13.10;8.60;;;23.00;57.40;;;;;;219275;1286;22647;-49
2023/12/29 22:52:17;;;;;;;9.10;7.20;;;23.00;56.90;;;;;;218876;1283;22540;-47
2023/12/29 22:57:25;;;;;;;8.40;6.40;;;22.90;57.00;;;;;;218988;1288;22550;-51
2023/12/29 23:02:30;;;;;;;11.40;7.30;;;23.00;57.00;;;;;;219062;1281;25267;-48
2023/12/29 23:07:36;;;;;;;9.50;6.40;;;23.10;56.40;;;;;;219940;1282;25509;-52
2023/12/29 23:12:41;;;;;;;8.80;6.90;;;23.20;56.00;;;;;;220146;1273;25497;-52
2023/12/29 23:17:46;;;;;;;11.50;7.00;;;23.30;56.20;;;;;;219553;1282;22540;-48
2023/12/29 23:22:51;;;;;;;8.60;5.80;;;23.60;55.20;;;;;;218868;1287;24228;-52
2023/12/29 23:27:55;;;;;;;6.70;6.10;;;23.80;54.70;;;;;;219512;1284;22548;-48
2023/12/29 23:33:00;;;;;;;10.10;6.20;;;24.00;54.30;;;;;;218772;1283;22533;-47
2023/12/29 23:38:09;;;;;;;7.80;6.30;;;24.00;54.40;;;;;;224930;1280;24236;-49
2023/12/29 23:43:13;;;;;;;8.00;6.00;;;24.10;54.30;;;;;;227087;1283;22210;-52
2023/12/29 23:48:19;;;;;;;8.20;5.80;;;24.10;54.30;;;;;;220008;1283;24240;-50
2023/12/29 23:53:24;;;;;;;6.10;5.20;;;23.90;54.50;;;;;;220715;1285;26678;-49
2023/12/29 23:58:28;;;;;;;10.00;5.90;;;23.70;54.60;;;;;;219274;1283;22927;-51
